sensor_id;sensor_type;location;lat;lon;timestamp;temperature;humidity
19200;DHT22;9732;52.498;5.408;2022-11-20T00:01:20;1.30;99.90
19200;DHT22;9732;52.498;5.408;2022-11-20T00:03:47;1.40;99.90
19200;DHT22;9732;52.498;5.408;2022-11-20T00:06:15;1.30;99.90
19200;DHT22;9732;52.498;5.408;2022-11-20T00:08:42;1.40;99.90
19200;DHT22;9732;52.498;5.408;2022-11-20T00:11:10;1.40;99.90
19200;DHT22;9732;52.498;5.408;2022-11-20T00:13:38;1.40;99.90
19200;DHT22;9732;52.498;5.408;2022-11-20T00:16:06;1.40;99.90
19200;DHT22;9732;52.498;5.408;2022-11-20T00:18:35;1.40;99.90
19200;DHT22;9732;52.498;5.408;2022-11-20T00:21:02;1.40;99.90
19200;DHT22;9732;52.498;5.408;2022-11-20T00:23:30;1.50;99.90
19200;DHT22;9732;52.498;5.408;2022-11-20T00:26:00;1.30;99.90
19200;DHT22;9732;52.498;5.408;2022-11-20T00:28:27;1.30;99.90
19200;DHT22;9732;52.498;5.408;2022-11-20T00:31:00;1.30;99.90
19200;DHT22;9732;52.498;5.408;2022-11-20T00:33:28;1.20;99.90
19200;DHT22;9732;52.498;5.408;2022-11-20T00:36:00;1.10;99.90
19200;DHT22;9732;52.498;5.408;2022-11-20T00:38:27;1.20;99.90
19200;DHT22;9732;52.498;5.408;2022-11-20T00:40:57;1.20;99.90
19200;DHT22;9732;52.498;5.408;2022-11-20T00:43:24;1.20;99.90
19200;DHT22;9732;52.498;5.408;2022-11-20T00:45:55;1.20;99.90
19200;DHT22;9732;52.498;5.408;2022-11-20T00:48:22;1.10;99.90
19200;DHT22;9732;52.498;5.408;2022-11-20T00:50:49;1.10;99.90
19200;DHT22;9732;52.498;5.408;2022-11-20T00:53:17;1.10;99.90
19200;DHT22;9732;52.498;5.408;2022-11-20T00:55:52;1.10;99.90
19200;DHT22;9732;52.498;5.408;2022-11-20T00:58:19;1.10;99.90
19200;DHT22;9732;52.498;5.408;2022-11-20T01:00:46;1.10;99.90
19200;DHT22;9732;52.498;5.408;2022-11-20T01:03:13;1.10;99.90
19200;DHT22;9732;52.498;5.408;2022-11-20T01:05:39;1.00;99.90
19200;DHT22;9732;52.498;5.408;2022-11-20T01:08:06;1.00;99.90
19200;DHT22;9732;52.498;5.408;2022-11-20T01:10:34;1.00;99.90
19200;DHT22;9732;52.498;5.408;2022-11-20T01:13:01;0.90;99.90
19200;DHT22;9732;52.498;5.408;2022-11-20T01:15:45;0.90;99.90
19200;DHT22;9732;52.498;5.408;2022-11-20T01:18:12;0.90;99.90
19200;DHT22;9732;52.498;5.408;2022-11-20T01:20:39;0.90;99.90
19200;DHT22;9732;52.498;5.408;2022-11-20T01:23:05;0.80;99.90
19200;DHT22;9732;52.498;5.408;2022-11-20T01:25:34;0.80;99.90
19200;DHT22;9732;52.498;5.408;2022-11-20T01:28:00;0.80;99.90
19200;DHT22;9732;52.498;5.408;2022-11-20T01:30:28;0.80;99.90
19200;DHT22;9732;52.498;5.408;2022-11-20T01:32:55;0.90;99.90
19200;DHT22;9732;52.498;5.408;2022-11-20T01:35:21;0.80;99.90
19200;DHT22;9732;52.498;5.408;2022-11-20T01:37:50;0.80;99.90
19200;DHT22;9732;52.498;5.408;2022-11-20T01:40:17;0.70;99.90
19200;DHT22;9732;52.498;5.408;2022-11-20T01:43:11;0.70;99.90
19200;DHT22;9732;52.498;5.408;2022-11-20T01:46:04;0.70;99.90
19200;DHT22;9732;52.498;5.408;2022-11-20T01:48:35;0.70;99.90
19200;DHT22;9732;52.498;5.408;2022-11-20T01:51:04;0.70;99.90
19200;DHT22;9732;52.498;5.408;2022-11-20T01:53:35;0.60;99.90
19200;DHT22;9732;52.498;5.408;2022-11-20T01:56:06;0.60;99.90
19200;DHT22;9732;52.498;5.408;2022-11-20T01:58:39;0.60;99.90
19200;DHT22;9732;52.498;5.408;2022-11-20T02:01:08;0.70;99.90
19200;DHT22;9732;52.498;5.408;2022-11-20T02:03:35;0.70;99.90
19200;DHT22;9732;52.498;5.408;2022-11-20T02:06:07;0.70;99.90
19200;DHT22;9732;52.498;5.408;2022-11-20T02:08:36;0.70;99.90
19200;DHT22;9732;52.498;5.408;2022-11-20T02:11:04;0.60;99.90
19200;DHT22;9732;52.498;5.408;2022-11-20T02:13:30;0.60;99.90
19200;DHT22;9732;52.498;5.408;2022-11-20T02:16:15;0.60;99.90
19200;DHT22;9732;52.498;5.408;2022-11-20T02:18:43;0.50;99.90
19200;DHT22;9732;52.498;5.408;2022-11-20T02:21:18;0.60;99.90
19200;DHT22;9732;52.498;5.408;2022-11-20T02:24:10;0.50;99.90
19200;DHT22;9732;52.498;5.408;2022-11-20T02:26:42;0.50;99.90
19200;DHT22;9732;52.498;5.408;2022-11-20T02:29:10;0.50;99.90
19200;DHT22;9732;52.498;5.408;2022-11-20T02:31:41;0.50;99.90
19200;DHT22;9732;52.498;5.408;2022-11-20T02:34:08;0.50;99.90
19200;DHT22;9732;52.498;5.408;2022-11-20T02:36:36;0.50;99.90
19200;DHT22;9732;52.498;5.408;2022-11-20T02:39:05;0.50;99.90
19200;DHT22;9732;52.498;5.408;2022-11-20T02:41:35;0.60;99.90
19200;DHT22;9732;52.498;5.408;2022-11-20T02:44:03;0.40;99.90
19200;DHT22;9732;52.498;5.408;2022-11-20T02:46:31;0.50;99.90
19200;DHT22;9732;52.498;5.408;2022-11-20T02:48:58;0.50;99.90
19200;DHT22;9732;52.498;5.408;2022-11-20T02:51:25;0.60;99.90
19200;DHT22;9732;52.498;5.408;2022-11-20T02:53:51;0.60;99.90
19200;DHT22;9732;52.498;5.408;2022-11-20T02:56:18;0.70;99.90
19200;DHT22;9732;52.498;5.408;2022-11-20T02:58:46;0.90;99.90
19200;DHT22;9732;52.498;5.408;2022-11-20T03:01:13;1.10;99.90
19200;DHT22;9732;52.498;5.408;2022-11-20T03:03:40;1.00;99.90
19200;DHT22;9732;52.498;5.408;2022-11-20T03:06:07;1.00;99.90
19200;DHT22;9732;52.498;5.408;2022-11-20T03:08:34;1.00;99.90
19200;DHT22;9732;52.498;5.408;2022-11-20T03:11:05;1.00;99.90
19200;DHT22;9732;52.498;5.408;2022-11-20T03:13:32;1.00;99.90
19200;DHT22;9732;52.498;5.408;2022-11-20T03:16:06;0.90;99.90
19200;DHT22;9732;52.498;5.408;2022-11-20T03:18:33;1.00;99.90
19200;DHT22;9732;52.498;5.408;2022-11-20T03:21:00;1.10;99.90
19200;DHT22;9732;52.498;5.408;2022-11-20T03:23:29;1.10;99.90
19200;DHT22;9732;52.498;5.408;2022-11-20T03:26:07;1.00;99.90
19200;DHT22;9732;52.498;5.408;2022-11-20T03:28:33;0.90;99.90
19200;DHT22;9732;52.498;5.408;2022-11-20T03:31:09;0.80;99.90
19200;DHT22;9732;52.498;5.408;2022-11-20T03:33:36;0.80;99.90
19200;DHT22;9732;52.498;5.408;2022-11-20T03:36:04;0.70;99.90
19200;DHT22;9732;52.498;5.408;2022-11-20T03:38:31;0.70;99.90
19200;DHT22;9732;52.498;5.408;2022-11-20T03:40:59;0.60;99.90
19200;DHT22;9732;52.498;5.408;2022-11-20T03:43:27;0.50;99.90
19200;DHT22;9732;52.498;5.408;2022-11-20T03:45:54;0.50;99.90
19200;DHT22;9732;52.498;5.408;2022-11-20T03:48:22;0.40;99.90
19200;DHT22;9732;52.498;5.408;2022-11-20T03:50:49;0.50;99.90
19200;DHT22;9732;52.498;5.408;2022-11-20T03:53:16;0.40;99.90
19200;DHT22;9732;52.498;5.408;2022-11-20T03:55:43;0.50;99.90
19200;DHT22;9732;52.498;5.408;2022-11-20T03:58:10;0.50;99.90
19200;DHT22;9732;52.498;5.408;2022-11-20T04:00:36;0.40;99.90
19200;DHT22;9732;52.498;5.408;2022-11-20T04:03:03;0.40;99.90
19200;DHT22;9732;52.498;5.408;2022-11-20T04:05:33;0.30;99.90
19200;DHT22;9732;52.498;5.408;2022-11-20T04:07:59;0.30;99.90
19200;DHT22;9732;52.498;5.408;2022-11-20T04:10:26;0.30;99.90
19200;DHT22;9732;52.498;5.408;2022-11-20T04:12:53;0.30;99.90
19200;DHT22;9732;52.498;5.408;2022-11-20T04:15:20;0.30;99.90
19200;DHT22;9732;52.498;5.408;2022-11-20T04:17:47;0.40;99.90
19200;DHT22;9732;52.498;5.408;2022-11-20T04:20:13;0.40;99.90
19200;DHT22;9732;52.498;5.408;2022-11-20T04:22:42;0.30;99.90
19200;DHT22;9732;52.498;5.408;2022-11-20T04:25:08;0.30;99.90
19200;DHT22;9732;52.498;5.408;2022-11-20T04:27:35;0.20;99.90
19200;DHT22;9732;52.498;5.408;2022-11-20T04:30:02;0.20;99.90
19200;DHT22;9732;52.498;5.408;2022-11-20T04:32:29;0.20;99.90
19200;DHT22;9732;52.498;5.408;2022-11-20T04:34:56;0.20;99.90
19200;DHT22;9732;52.498;5.408;2022-11-20T04:37:23;0.20;99.90
19200;DHT22;9732;52.498;5.408;2022-11-20T04:39:51;0.10;99.90
19200;DHT22;9732;52.498;5.408;2022-11-20T04:42:17;0.10;99.90
19200;DHT22;9732;52.498;5.408;2022-11-20T04:44:56;0.10;99.90
19200;DHT22;9732;52.498;5.408;2022-11-20T04:47:23;0.10;99.90
19200;DHT22;9732;52.498;5.408;2022-11-20T04:49:50;0.20;99.90
19200;DHT22;9732;52.498;5.408;2022-11-20T04:52:17;0.20;99.90
19200;DHT22;9732;52.498;5.408;2022-11-20T04:54:44;0.20;99.90
19200;DHT22;9732;52.498;5.408;2022-11-20T04:57:13;0.20;99.90
19200;DHT22;9732;52.498;5.408;2022-11-20T04:59:40;0.20;99.90
19200;DHT22;9732;52.498;5.408;2022-11-20T05:02:06;0.20;99.90
19200;DHT22;9732;52.498;5.408;2022-11-20T05:04:33;0.20;99.90
19200;DHT22;9732;52.498;5.408;2022-11-20T05:07:00;0.20;99.90
19200;DHT22;9732;52.498;5.408;2022-11-20T05:09:26;0.20;99.90
19200;DHT22;9732;52.498;5.408;2022-11-20T05:11:53;0.20;99.90
19200;DHT22;9732;52.498;5.408;2022-11-20T05:14:21;0.20;99.90
19200;DHT22;9732;52.498;5.408;2022-11-20T05:16:48;0.20;99.90
19200;DHT22;9732;52.498;5.408;2022-11-20T05:19:15;0.10;99.90
19200;DHT22;9732;52.498;5.408;2022-11-20T05:21:41;0.10;99.90
19200;DHT22;9732;52.498;5.408;2022-11-20T05:24:08;0.10;99.90
19200;DHT22;9732;52.498;5.408;2022-11-20T05:26:35;0.10;99.90
19200;DHT22;9732;52.498;5.408;2022-11-20T05:29:02;0.10;99.90
19200;DHT22;9732;52.498;5.408;2022-11-20T05:31:30;0.10;99.90
19200;DHT22;9732;52.498;5.408;2022-11-20T05:33:57;0.10;99.90
19200;DHT22;9732;52.498;5.408;2022-11-20T05:36:25;0.10;99.90
19200;DHT22;9732;52.498;5.408;2022-11-20T05:38:51;0.10;99.90
19200;DHT22;9732;52.498;5.408;2022-11-20T05:41:19;0.10;99.90
19200;DHT22;9732;52.498;5.408;2022-11-20T05:43:47;0.10;99.90
19200;DHT22;9732;52.498;5.408;2022-11-20T05:46:16;0.20;99.90
19200;DHT22;9732;52.498;5.408;2022-11-20T05:48:45;0.20;99.90
19200;DHT22;9732;52.498;5.408;2022-11-20T05:51:13;0.10;99.90
19200;DHT22;9732;52.498;5.408;2022-11-20T05:53:40;0.10;99.90
19200;DHT22;9732;52.498;5.408;2022-11-20T05:56:09;0.10;99.90
19200;DHT22;9732;52.498;5.408;2022-11-20T05:58:36;0.10;99.90
19200;DHT22;9732;52.498;5.408;2022-11-20T06:01:06;0.00;99.90
19200;DHT22;9732;52.498;5.408;2022-11-20T06:03:33;0.00;99.90
19200;DHT22;9732;52.498;5.408;2022-11-20T06:06:02;0.00;99.90
19200;DHT22;9732;52.498;5.408;2022-11-20T06:08:28;0.00;99.90
19200;DHT22;9732;52.498;5.408;2022-11-20T06:10:55;0.00;99.90
19200;DHT22;9732;52.498;5.408;2022-11-20T06:13:22;0.10;99.90
19200;DHT22;9732;52.498;5.408;2022-11-20T06:15:49;0.00;99.90
19200;DHT22;9732;52.498;5.408;2022-11-20T06:18:17;0.00;99.90
19200;DHT22;9732;52.498;5.408;2022-11-20T06:20:44;0.10;99.90
19200;DHT22;9732;52.498;5.408;2022-11-20T06:23:12;0.00;99.90
19200;DHT22;9732;52.498;5.408;2022-11-20T06:25:40;0.00;99.90
19200;DHT22;9732;52.498;5.408;2022-11-20T06:28:07;0.20;99.90
19200;DHT22;9732;52.498;5.408;2022-11-20T06:30:35;0.30;99.90
19200;DHT22;9732;52.498;5.408;2022-11-20T06:33:02;0.40;99.90
19200;DHT22;9732;52.498;5.408;2022-11-20T06:35:28;0.50;99.90
19200;DHT22;9732;52.498;5.408;2022-11-20T06:37:55;0.60;99.90
19200;DHT22;9732;52.498;5.408;2022-11-20T06:40:24;0.60;99.90
19200;DHT22;9732;52.498;5.408;2022-11-20T06:42:50;0.50;99.90
19200;DHT22;9732;52.498;5.408;2022-11-20T06:45:17;0.60;99.90
19200;DHT22;9732;52.498;5.408;2022-11-20T06:47:44;0.60;99.90
19200;DHT22;9732;52.498;5.408;2022-11-20T06:50:11;0.60;99.90
19200;DHT22;9732;52.498;5.408;2022-11-20T06:52:37;0.60;99.90
19200;DHT22;9732;52.498;5.408;2022-11-20T06:55:05;0.60;99.90
19200;DHT22;9732;52.498;5.408;2022-11-20T06:57:33;0.70;99.90
19200;DHT22;9732;52.498;5.408;2022-11-20T07:00:00;0.70;99.90
19200;DHT22;9732;52.498;5.408;2022-11-20T07:02:26;0.80;99.90
19200;DHT22;9732;52.498;5.408;2022-11-20T07:04:53;0.80;99.90
19200;DHT22;9732;52.498;5.408;2022-11-20T07:07:20;0.80;99.90
19200;DHT22;9732;52.498;5.408;2022-11-20T07:09:46;0.80;99.90
19200;DHT22;9732;52.498;5.408;2022-11-20T07:12:13;0.90;99.90
19200;DHT22;9732;52.498;5.408;2022-11-20T07:14:41;0.90;99.90
19200;DHT22;9732;52.498;5.408;2022-11-20T07:17:08;0.90;99.90
19200;DHT22;9732;52.498;5.408;2022-11-20T07:19:35;0.90;99.90
19200;DHT22;9732;52.498;5.408;2022-11-20T07:22:01;0.90;99.90
19200;DHT22;9732;52.498;5.408;2022-11-20T07:24:28;0.90;99.90
19200;DHT22;9732;52.498;5.408;2022-11-20T07:26:55;0.90;99.90
19200;DHT22;9732;52.498;5.408;2022-11-20T07:29:22;0.90;99.90
19200;DHT22;9732;52.498;5.408;2022-11-20T07:31:50;1.00;99.90
19200;DHT22;9732;52.498;5.408;2022-11-20T07:34:17;1.00;99.90
19200;DHT22;9732;52.498;5.408;2022-11-20T07:36:43;1.00;99.90
19200;DHT22;9732;52.498;5.408;2022-11-20T07:39:10;0.90;99.90
19200;DHT22;9732;52.498;5.408;2022-11-20T07:41:37;0.90;99.90
19200;DHT22;9732;52.498;5.408;2022-11-20T07:44:04;0.90;99.90
19200;DHT22;9732;52.498;5.408;2022-11-20T07:46:31;0.90;99.90
19200;DHT22;9732;52.498;5.408;2022-11-20T07:48:59;0.90;99.90
19200;DHT22;9732;52.498;5.408;2022-11-20T07:51:25;0.90;99.90
19200;DHT22;9732;52.498;5.408;2022-11-20T07:53:52;0.90;99.90
19200;DHT22;9732;52.498;5.408;2022-11-20T07:56:19;1.00;99.90
19200;DHT22;9732;52.498;5.408;2022-11-20T07:58:46;1.00;99.90
19200;DHT22;9732;52.498;5.408;2022-11-20T08:01:13;1.00;99.90
19200;DHT22;9732;52.498;5.408;2022-11-20T08:03:43;1.10;99.90
19200;DHT22;9732;52.498;5.408;2022-11-20T08:06:11;1.10;99.90
19200;DHT22;9732;52.498;5.408;2022-11-20T08:08:37;1.00;99.90
19200;DHT22;9732;52.498;5.408;2022-11-20T08:11:05;1.00;99.90
19200;DHT22;9732;52.498;5.408;2022-11-20T08:13:49;1.00;99.90
19200;DHT22;9732;52.498;5.408;2022-11-20T08:16:33;1.00;99.90
19200;DHT22;9732;52.498;5.408;2022-11-20T08:19:00;1.00;99.90
19200;DHT22;9732;52.498;5.408;2022-11-20T08:21:29;1.00;99.90
19200;DHT22;9732;52.498;5.408;2022-11-20T08:23:57;1.10;99.90
19200;DHT22;9732;52.498;5.408;2022-11-20T08:26:24;1.10;99.90
19200;DHT22;9732;52.498;5.408;2022-11-20T08:28:53;1.10;99.90
19200;DHT22;9732;52.498;5.408;2022-11-20T08:31:20;1.20;99.90
19200;DHT22;9732;52.498;5.408;2022-11-20T08:33:47;1.20;99.90
19200;DHT22;9732;52.498;5.408;2022-11-20T08:36:14;1.20;99.90
19200;DHT22;9732;52.498;5.408;2022-11-20T08:38:47;1.30;99.90
19200;DHT22;9732;52.498;5.408;2022-11-20T08:41:14;1.20;99.90
19200;DHT22;9732;52.498;5.408;2022-11-20T08:43:51;1.20;99.90
19200;DHT22;9732;52.498;5.408;2022-11-20T08:46:19;1.30;99.90
19200;DHT22;9732;52.498;5.408;2022-11-20T08:48:45;1.30;99.90
19200;DHT22;9732;52.498;5.408;2022-11-20T08:51:13;1.40;99.90
19200;DHT22;9732;52.498;5.408;2022-11-20T08:53:40;1.40;99.90
19200;DHT22;9732;52.498;5.408;2022-11-20T08:56:09;1.50;99.90
19200;DHT22;9732;52.498;5.408;2022-11-20T08:58:36;1.50;99.90
19200;DHT22;9732;52.498;5.408;2022-11-20T09:01:03;1.50;99.90
19200;DHT22;9732;52.498;5.408;2022-11-20T09:03:30;1.50;99.90
19200;DHT22;9732;52.498;5.408;2022-11-20T09:05:58;1.50;99.90
19200;DHT22;9732;52.498;5.408;2022-11-20T09:08:26;1.60;99.90
19200;DHT22;9732;52.498;5.408;2022-11-20T09:10:53;1.60;99.90
19200;DHT22;9732;52.498;5.408;2022-11-20T09:13:22;1.60;99.90
19200;DHT22;9732;52.498;5.408;2022-11-20T09:15:53;1.60;99.90
19200;DHT22;9732;52.498;5.408;2022-11-20T09:18:20;1.60;99.90
19200;DHT22;9732;52.498;5.408;2022-11-20T09:20:46;1.60;99.90
19200;DHT22;9732;52.498;5.408;2022-11-20T09:23:14;1.70;99.90
19200;DHT22;9732;52.498;5.408;2022-11-20T09:25:41;1.70;99.90
19200;DHT22;9732;52.498;5.408;2022-11-20T09:28:08;1.70;99.90
19200;DHT22;9732;52.498;5.408;2022-11-20T09:30:36;1.80;99.90
19200;DHT22;9732;52.498;5.408;2022-11-20T09:33:04;1.80;99.90
19200;DHT22;9732;52.498;5.408;2022-11-20T09:35:31;1.90;99.90
19200;DHT22;9732;52.498;5.408;2022-11-20T09:38:03;1.90;99.90
19200;DHT22;9732;52.498;5.408;2022-11-20T09:40:34;1.90;99.90
19200;DHT22;9732;52.498;5.408;2022-11-20T09:43:07;1.90;99.90
19200;DHT22;9732;52.498;5.408;2022-11-20T09:45:49;1.90;99.90
19200;DHT22;9732;52.498;5.408;2022-11-20T09:48:42;2.00;99.90
19200;DHT22;9732;52.498;5.408;2022-11-20T09:51:20;2.00;99.90
19200;DHT22;9732;52.498;5.408;2022-11-20T09:54:05;2.00;99.90
19200;DHT22;9732;52.498;5.408;2022-11-20T09:56:34;2.10;99.90
19200;DHT22;9732;52.498;5.408;2022-11-20T09:59:06;2.00;99.90
19200;DHT22;9732;52.498;5.408;2022-11-20T10:01:36;2.10;99.90
19200;DHT22;9732;52.498;5.408;2022-11-20T10:04:11;2.00;99.90
19200;DHT22;9732;52.498;5.408;2022-11-20T10:06:44;2.00;99.90
19200;DHT22;9732;52.498;5.408;2022-11-20T10:09:21;2.00;99.90
19200;DHT22;9732;52.498;5.408;2022-11-20T10:11:57;2.10;99.90
19200;DHT22;9732;52.498;5.408;2022-11-20T10:14:30;2.10;99.90
19200;DHT22;9732;52.498;5.408;2022-11-20T10:17:08;2.10;99.90
19200;DHT22;9732;52.498;5.408;2022-11-20T10:19:50;2.10;99.90
19200;DHT22;9732;52.498;5.408;2022-11-20T10:22:31;2.10;99.90
19200;DHT22;9732;52.498;5.408;2022-11-20T10:25:06;2.20;99.90
19200;DHT22;9732;52.498;5.408;2022-11-20T10:27:53;2.20;99.90
19200;DHT22;9732;52.498;5.408;2022-11-20T10:30:24;2.30;99.90
19200;DHT22;9732;52.498;5.408;2022-11-20T10:32:57;2.30;99.90
19200;DHT22;9732;52.498;5.408;2022-11-20T10:35:33;2.40;99.90
19200;DHT22;9732;52.498;5.408;2022-11-20T10:38:05;2.40;99.90
19200;DHT22;9732;52.498;5.408;2022-11-20T10:40:38;2.40;99.90
19200;DHT22;9732;52.498;5.408;2022-11-20T10:43:12;2.40;99.90
19200;DHT22;9732;52.498;5.408;2022-11-20T10:45:48;2.40;99.90
19200;DHT22;9732;52.498;5.408;2022-11-20T10:48:21;2.40;99.90
19200;DHT22;9732;52.498;5.408;2022-11-20T10:50:57;2.40;99.90
19200;DHT22;9732;52.498;5.408;2022-11-20T10:53:45;2.40;99.90
19200;DHT22;9732;52.498;5.408;2022-11-20T10:56:19;2.40;99.90
19200;DHT22;9732;52.498;5.408;2022-11-20T10:58:56;2.60;99.90
19200;DHT22;9732;52.498;5.408;2022-11-20T11:01:27;2.50;99.90
19200;DHT22;9732;52.498;5.408;2022-11-20T11:03:56;2.50;99.90
19200;DHT22;9732;52.498;5.408;2022-11-20T11:06:29;2.60;99.90
19200;DHT22;9732;52.498;5.408;2022-11-20T11:09:02;2.60;99.90
19200;DHT22;9732;52.498;5.408;2022-11-20T11:11:32;2.70;99.90
19200;DHT22;9732;52.498;5.408;2022-11-20T11:14:08;2.70;99.90
19200;DHT22;9732;52.498;5.408;2022-11-20T11:16:48;2.80;99.90
19200;DHT22;9732;52.498;5.408;2022-11-20T11:19:19;2.80;99.90
19200;DHT22;9732;52.498;5.408;2022-11-20T11:21:48;2.90;99.90
19200;DHT22;9732;52.498;5.408;2022-11-20T11:24:21;2.90;99.90
19200;DHT22;9732;52.498;5.408;2022-11-20T11:26:55;3.00;99.90
19200;DHT22;9732;52.498;5.408;2022-11-20T11:29:22;3.00;99.90
19200;DHT22;9732;52.498;5.408;2022-11-20T11:32:03;3.00;99.90
19200;DHT22;9732;52.498;5.408;2022-11-20T11:34:31;3.00;99.90
19200;DHT22;9732;52.498;5.408;2022-11-20T11:36:59;3.00;99.90
19200;DHT22;9732;52.498;5.408;2022-11-20T11:39:30;3.10;99.90
19200;DHT22;9732;52.498;5.408;2022-11-20T11:41:58;3.00;99.90
19200;DHT22;9732;52.498;5.408;2022-11-20T11:44:30;3.00;99.90
19200;DHT22;9732;52.498;5.408;2022-11-20T11:47:24;3.00;99.90
19200;DHT22;9732;52.498;5.408;2022-11-20T11:50:13;3.00;99.90
19200;DHT22;9732;52.498;5.408;2022-11-20T11:52:45;3.10;99.90
19200;DHT22;9732;52.498;5.408;2022-11-20T11:55:17;3.10;99.90
19200;DHT22;9732;52.498;5.408;2022-11-20T11:57:49;3.20;99.90
19200;DHT22;9732;52.498;5.408;2022-11-20T12:00:21;3.20;99.90
19200;DHT22;9732;52.498;5.408;2022-11-20T12:02:55;3.20;99.90
19200;DHT22;9732;52.498;5.408;2022-11-20T12:05:27;3.20;99.90
19200;DHT22;9732;52.498;5.408;2022-11-20T12:07:57;3.30;99.90
19200;DHT22;9732;52.498;5.408;2022-11-20T12:10:38;3.20;99.90
19200;DHT22;9732;52.498;5.408;2022-11-20T12:15:58;3.20;99.90
19200;DHT22;9732;52.498;5.408;2022-11-20T12:18:27;3.20;99.90
19200;DHT22;9732;52.498;5.408;2022-11-20T12:21:05;3.10;99.90
19200;DHT22;9732;52.498;5.408;2022-11-20T12:23:44;3.10;99.90
19200;DHT22;9732;52.498;5.408;2022-11-20T12:26:19;3.10;99.90
19200;DHT22;9732;52.498;5.408;2022-11-20T12:28:59;3.10;99.90
19200;DHT22;9732;52.498;5.408;2022-11-20T12:31:47;3.10;99.90
19200;DHT22;9732;52.498;5.408;2022-11-20T12:34:36;3.20;99.90
19200;DHT22;9732;52.498;5.408;2022-11-20T12:37:15;3.20;99.90
19200;DHT22;9732;52.498;5.408;2022-11-20T12:39:49;3.30;99.90
19200;DHT22;9732;52.498;5.408;2022-11-20T12:48:42;3.40;99.90
19200;DHT22;9732;52.498;5.408;2022-11-20T12:54:33;3.40;99.90
19200;DHT22;9732;52.498;5.408;2022-11-20T12:57:08;3.40;99.90
19200;DHT22;9732;52.498;5.408;2022-11-20T12:59:50;3.50;99.90
19200;DHT22;9732;52.498;5.408;2022-11-20T13:02:24;3.50;99.90
19200;DHT22;9732;52.498;5.408;2022-11-20T13:05:13;3.50;99.90
19200;DHT22;9732;52.498;5.408;2022-11-20T13:07:44;3.50;99.90
19200;DHT22;9732;52.498;5.408;2022-11-20T13:10:19;3.50;99.90
19200;DHT22;9732;52.498;5.408;2022-11-20T13:12:50;3.50;99.90
19200;DHT22;9732;52.498;5.408;2022-11-20T13:15:34;3.50;99.90
19200;DHT22;9732;52.498;5.408;2022-11-20T13:18:04;3.50;99.90
19200;DHT22;9732;52.498;5.408;2022-11-20T13:20:35;3.50;99.90
19200;DHT22;9732;52.498;5.408;2022-11-20T13:23:02;3.50;99.90
19200;DHT22;9732;52.498;5.408;2022-11-20T13:25:32;3.50;99.90
19200;DHT22;9732;52.498;5.408;2022-11-20T13:28:00;3.50;99.90
19200;DHT22;9732;52.498;5.408;2022-11-20T13:30:28;3.50;99.90
19200;DHT22;9732;52.498;5.408;2022-11-20T13:32:56;3.50;99.90
19200;DHT22;9732;52.498;5.408;2022-11-20T13:35:30;3.50;99.90
19200;DHT22;9732;52.498;5.408;2022-11-20T13:38:03;3.50;99.90
19200;DHT22;9732;52.498;5.408;2022-11-20T13:40:32;3.50;99.90
19200;DHT22;9732;52.498;5.408;2022-11-20T13:43:18;3.50;99.90
19200;DHT22;9732;52.498;5.408;2022-11-20T13:45:56;3.40;99.90
19200;DHT22;9732;52.498;5.408;2022-11-20T13:48:24;3.40;99.90
19200;DHT22;9732;52.498;5.408;2022-11-20T13:51:00;3.40;99.90
19200;DHT22;9732;52.498;5.408;2022-11-20T13:53:48;3.40;99.90
19200;DHT22;9732;52.498;5.408;2022-11-20T13:56:23;3.50;99.90
19200;DHT22;9732;52.498;5.408;2022-11-20T13:58:59;3.60;99.90
19200;DHT22;9732;52.498;5.408;2022-11-20T14:01:30;3.50;99.90
19200;DHT22;9732;52.498;5.408;2022-11-20T14:03:58;3.50;99.90
19200;DHT22;9732;52.498;5.408;2022-11-20T14:06:27;3.50;99.90
19200;DHT22;9732;52.498;5.408;2022-11-20T14:08:55;3.50;99.90
19200;DHT22;9732;52.498;5.408;2022-11-20T14:11:25;3.50;99.90
19200;DHT22;9732;52.498;5.408;2022-11-20T14:13:58;3.50;99.90
19200;DHT22;9732;52.498;5.408;2022-11-20T14:16:26;3.50;99.90
19200;DHT22;9732;52.498;5.408;2022-11-20T14:18:54;3.50;99.90
19200;DHT22;9732;52.498;5.408;2022-11-20T14:21:22;3.50;99.90
19200;DHT22;9732;52.498;5.408;2022-11-20T14:23:52;3.50;99.90
19200;DHT22;9732;52.498;5.408;2022-11-20T14:26:20;3.50;99.90
19200;DHT22;9732;52.498;5.408;2022-11-20T14:28:49;3.50;99.90
19200;DHT22;9732;52.498;5.408;2022-11-20T14:31:22;3.60;99.90
19200;DHT22;9732;52.498;5.408;2022-11-20T14:33:51;3.60;99.90
19200;DHT22;9732;52.498;5.408;2022-11-20T14:36:20;3.60;99.90
19200;DHT22;9732;52.498;5.408;2022-11-20T14:38:47;3.60;99.90
19200;DHT22;9732;52.498;5.408;2022-11-20T14:41:18;3.60;99.90
19200;DHT22;9732;52.498;5.408;2022-11-20T14:43:47;3.60;99.90
19200;DHT22;9732;52.498;5.408;2022-11-20T14:46:15;3.60;99.90
19200;DHT22;9732;52.498;5.408;2022-11-20T14:48:46;3.60;99.90
19200;DHT22;9732;52.498;5.408;2022-11-20T14:51:25;3.60;99.90
19200;DHT22;9732;52.498;5.408;2022-11-20T14:53:53;3.60;99.90
19200;DHT22;9732;52.498;5.408;2022-11-20T14:56:22;3.60;99.90
19200;DHT22;9732;52.498;5.408;2022-11-20T14:58:55;3.60;99.90
19200;DHT22;9732;52.498;5.408;2022-11-20T15:01:27;3.70;99.90
19200;DHT22;9732;52.498;5.408;2022-11-20T15:04:00;3.60;99.90
19200;DHT22;9732;52.498;5.408;2022-11-20T15:06:28;3.60;99.90
19200;DHT22;9732;52.498;5.408;2022-11-20T15:08:56;3.60;99.90
19200;DHT22;9732;52.498;5.408;2022-11-20T15:11:28;3.60;99.90
19200;DHT22;9732;52.498;5.408;2022-11-20T15:13:56;3.60;99.90
19200;DHT22;9732;52.498;5.408;2022-11-20T15:16:25;3.60;99.90
19200;DHT22;9732;52.498;5.408;2022-11-20T15:18:53;3.60;99.90
19200;DHT22;9732;52.498;5.408;2022-11-20T15:21:20;3.50;99.90
19200;DHT22;9732;52.498;5.408;2022-11-20T15:23:48;3.50;99.90
19200;DHT22;9732;52.498;5.408;2022-11-20T15:26:19;3.50;99.90
19200;DHT22;9732;52.498;5.408;2022-11-20T15:28:48;3.50;99.90
19200;DHT22;9732;52.498;5.408;2022-11-20T15:31:17;3.50;99.90
19200;DHT22;9732;52.498;5.408;2022-11-20T15:33:46;3.40;99.90
19200;DHT22;9732;52.498;5.408;2022-11-20T15:36:12;3.50;99.90
19200;DHT22;9732;52.498;5.408;2022-11-20T15:38:39;3.40;99.90
19200;DHT22;9732;52.498;5.408;2022-11-20T15:41:06;3.50;99.90
19200;DHT22;9732;52.498;5.408;2022-11-20T15:43:33;3.50;99.90
19200;DHT22;9732;52.498;5.408;2022-11-20T15:46:04;3.50;99.90
19200;DHT22;9732;52.498;5.408;2022-11-20T15:48:34;3.40;99.90
19200;DHT22;9732;52.498;5.408;2022-11-20T15:51:06;3.50;99.90
19200;DHT22;9732;52.498;5.408;2022-11-20T15:53:40;3.50;99.90
19200;DHT22;9732;52.498;5.408;2022-11-20T15:56:11;3.50;99.90
19200;DHT22;9732;52.498;5.408;2022-11-20T15:58:38;3.50;99.90
19200;DHT22;9732;52.498;5.408;2022-11-20T16:01:08;3.50;99.90
19200;DHT22;9732;52.498;5.408;2022-11-20T16:03:38;3.40;99.90
19200;DHT22;9732;52.498;5.408;2022-11-20T16:06:06;3.40;99.90
19200;DHT22;9732;52.498;5.408;2022-11-20T16:08:33;3.40;99.90
19200;DHT22;9732;52.498;5.408;2022-11-20T16:11:00;3.40;99.90
19200;DHT22;9732;52.498;5.408;2022-11-20T16:13:26;3.40;99.90
19200;DHT22;9732;52.498;5.408;2022-11-20T16:16:19;3.40;99.90
19200;DHT22;9732;52.498;5.408;2022-11-20T16:18:47;3.30;99.90
19200;DHT22;9732;52.498;5.408;2022-11-20T16:21:15;3.30;99.90
19200;DHT22;9732;52.498;5.408;2022-11-20T16:23:42;3.20;99.90
19200;DHT22;9732;52.498;5.408;2022-11-20T16:26:10;3.30;99.90
19200;DHT22;9732;52.498;5.408;2022-11-20T16:28:37;3.30;99.90
19200;DHT22;9732;52.498;5.408;2022-11-20T16:31:08;3.30;99.90
19200;DHT22;9732;52.498;5.408;2022-11-20T16:33:36;3.20;99.90